createdAt,value
2023-10-05T00:02:06.370Z,100.00
2023-10-05T00:04:46.516Z,100.00
2023-10-05T00:07:20.958Z,100.00
2023-10-05T00:09:47.636Z,100.00
2023-10-05T00:12:21.044Z,100.00
2023-10-05T00:14:49.667Z,100.00
2023-10-05T00:17:20.351Z,100.00
2023-10-05T00:19:47.497Z,100.00
2023-10-05T00:22:14.060Z,100.00
2023-10-05T00:24:41.678Z,100.00
2023-10-05T00:27:13.569Z,100.00
2023-10-05T00:29:50.078Z,100.00
2023-10-05T00:32:17.001Z,100.00
2023-10-05T00:34:46.336Z,100.00
2023-10-05T00:37:13.075Z,100.00
2023-10-05T00:39:40.215Z,100.00
2023-10-05T00:42:12.554Z,100.00
2023-10-05T00:44:42.119Z,100.00
2023-10-05T00:47:09.011Z,100.00
2023-10-05T00:49:59.049Z,100.00
2023-10-05T00:52:26.365Z,100.00
2023-10-05T00:54:56.153Z,100.00
2023-10-05T00:57:25.651Z,100.00
2023-10-05T01:00:06.060Z,100.00
2023-10-05T01:02:36.048Z,100.00
2023-10-05T01:05:11.611Z,100.00
2023-10-05T01:07:57.257Z,100.00
2023-10-05T01:10:24.945Z,100.00
2023-10-05T01:12:52.040Z,100.00
2023-10-05T01:15:31.856Z,100.00
2023-10-05T01:17:58.997Z,100.00
2023-10-05T01:20:26.618Z,100.00
2023-10-05T01:22:58.454Z,100.00
2023-10-05T01:25:27.005Z,100.00
2023-10-05T01:27:53.807Z,100.00
2023-10-05T01:30:20.997Z,100.00
2023-10-05T01:32:50.481Z,100.00
2023-10-05T01:35:18.822Z,100.00
2023-10-05T01:37:47.033Z,100.00
2023-10-05T01:40:20.725Z,100.00
2023-10-05T01:42:49.142Z,100.00
2023-10-05T01:45:17.188Z,100.00
2023-10-05T01:47:47.776Z,100.00
2023-10-05T01:50:23.827Z,100.00
2023-10-05T01:53:08.094Z,100.00
2023-10-05T01:55:39.069Z,100.00
2023-10-05T01:58:06.949Z,100.00
2023-10-05T02:00:38.795Z,100.00
2023-10-05T02:03:09.628Z,100.00
2023-10-05T02:05:37.301Z,100.00
2023-10-05T02:08:05.085Z,100.00
2023-10-05T02:10:40.676Z,100.00
2023-10-05T02:13:12.957Z,100.00
2023-10-05T02:15:43.265Z,100.00
2023-10-05T02:18:19.491Z,100.00
2023-10-05T02:20:47.023Z,100.00
2023-10-05T02:23:26.538Z,100.00
2023-10-05T02:25:57.607Z,100.00
2023-10-05T02:28:26.863Z,100.00
2023-10-05T02:30:55.152Z,100.00
2023-10-05T02:33:28.153Z,100.00
2023-10-05T02:36:01.200Z,100.00
2023-10-05T02:38:27.573Z,100.00
2023-10-05T02:41:05.165Z,100.00
2023-10-05T02:43:39.692Z,100.00
2023-10-05T02:46:11.708Z,100.00
2023-10-05T02:48:43.192Z,100.00
2023-10-05T02:51:14.640Z,100.00
2023-10-05T02:53:47.823Z,100.00
2023-10-05T02:56:28.852Z,100.00
2023-10-05T02:58:57.644Z,100.00
2023-10-05T03:01:24.634Z,100.00
2023-10-05T03:03:52.784Z,100.00
2023-10-05T03:06:23.629Z,100.00
2023-10-05T03:08:50.799Z,100.00
2023-10-05T03:11:19.414Z,100.00
2023-10-05T03:13:47.079Z,100.00
2023-10-05T03:16:14.777Z,100.00
2023-10-05T03:18:44.341Z,100.00
2023-10-05T03:21:15.022Z,100.00
2023-10-05T03:23:42.793Z,100.00
2023-10-05T03:26:11.659Z,100.00
2023-10-05T03:28:38.949Z,100.00
2023-10-05T03:31:33.842Z,100.00
2023-10-05T03:34:00.430Z,100.00
2023-10-05T03:36:27.338Z,100.00
2023-10-05T03:38:57.399Z,100.00
2023-10-05T03:41:27.276Z,100.00
2023-10-05T03:43:56.903Z,100.00
2023-10-05T03:46:26.312Z,100.00
2023-10-05T03:49:00.710Z,100.00
2023-10-05T03:51:29.320Z,100.00
2023-10-05T03:53:56.025Z,100.00
2023-10-05T03:56:22.785Z,100.00
2023-10-05T03:58:49.919Z,100.00
2023-10-05T04:01:18.535Z,100.00
2023-10-05T04:03:47.690Z,100.00
2023-10-05T04:06:18.560Z,100.00
2023-10-05T04:08:49.796Z,100.00
2023-10-05T04:11:18.055Z,100.00
2023-10-05T04:13:45.083Z,100.00
2023-10-05T04:16:19.248Z,100.00
2023-10-05T04:18:48.141Z,100.00
2023-10-05T04:21:19.572Z,100.00
2023-10-05T04:23:50.874Z,100.00
2023-10-05T04:26:21.404Z,100.00
2023-10-05T04:28:55.413Z,100.00
2023-10-05T04:31:24.430Z,100.00
2023-10-05T04:33:52.105Z,100.00
2023-10-05T04:36:25.446Z,100.00
2023-10-05T04:38:54.891Z,100.00
2023-10-05T04:41:32.913Z,100.00
2023-10-05T04:43:59.346Z,100.00
2023-10-05T04:46:25.982Z,100.00
2023-10-05T04:49:09.259Z,100.00
2023-10-05T04:51:39.861Z,100.00
2023-10-05T04:54:08.096Z,100.00
2023-10-05T04:56:40.143Z,100.00
2023-10-05T04:59:13.780Z,100.00
2023-10-05T05:01:53.144Z,100.00
2023-10-05T05:04:36.425Z,100.00
2023-10-05T05:07:10.301Z,100.00
2023-10-05T05:09:42.829Z,100.00
2023-10-05T05:12:17.207Z,100.00
2023-10-05T05:14:47.846Z,100.00
2023-10-05T05:17:25.078Z,100.00
2023-10-05T05:19:54.383Z,100.00
2023-10-05T05:22:21.015Z,100.00
2023-10-05T05:24:48.223Z,100.00
2023-10-05T05:27:14.627Z,100.00
2023-10-05T05:29:41.015Z,100.00
2023-10-05T05:32:25.811Z,100.00
2023-10-05T05:34:52.509Z,100.00
2023-10-05T05:37:40.097Z,100.00
2023-10-05T05:40:13.994Z,100.00
2023-10-05T05:42:46.485Z,100.00
2023-10-05T05:45:21.966Z,100.00
2023-10-05T05:47:49.040Z,100.00
2023-10-05T05:50:19.708Z,100.00
2023-10-05T05:52:52.191Z,100.00
2023-10-05T05:55:21.983Z,100.00
2023-10-05T05:57:54.394Z,100.00
2023-10-05T06:00:21.766Z,100.00
2023-10-05T06:02:48.356Z,100.00
2023-10-05T06:05:15.694Z,100.00
2023-10-05T06:07:44.679Z,100.00
2023-10-05T06:10:17.316Z,100.00
2023-10-05T06:12:45.601Z,100.00
2023-10-05T06:15:14.733Z,100.00
2023-10-05T06:17:42.255Z,100.00
2023-10-05T06:20:15.835Z,100.00
2023-10-05T06:22:46.481Z,100.00
2023-10-05T06:25:17.854Z,100.00
2023-10-05T06:27:50.063Z,100.00
2023-10-05T06:30:16.745Z,100.00
2023-10-05T06:32:46.425Z,100.00
2023-10-05T06:35:14.411Z,100.00
2023-10-05T06:37:42.601Z,100.00
2023-10-05T06:40:22.640Z,100.00
2023-10-05T06:42:50.791Z,100.00
2023-10-05T06:45:17.235Z,100.00
2023-10-05T06:47:44.120Z,100.00
2023-10-05T06:50:11.656Z,100.00
2023-10-05T06:52:44.367Z,100.00
2023-10-05T06:55:18.568Z,100.00
2023-10-05T06:57:45.888Z,100.00
2023-10-05T07:00:23.284Z,100.00
2023-10-05T07:02:51.253Z,100.00
2023-10-05T07:05:19.198Z,100.00
2023-10-05T07:07:45.689Z,100.00
2023-10-05T07:10:16.310Z,100.00
2023-10-05T07:12:47.468Z,100.00
2023-10-05T07:15:22.355Z,100.00
2023-10-05T07:17:50.353Z,100.00
2023-10-05T07:20:18.198Z,100.00
2023-10-05T07:22:46.897Z,100.00
2023-10-05T07:25:15.399Z,100.00
2023-10-05T07:27:46.523Z,100.00
2023-10-05T07:30:13.717Z,100.00
2023-10-05T07:32:40.459Z,100.00
2023-10-05T07:35:08.344Z,100.00
2023-10-05T07:37:36.781Z,100.00
2023-10-05T07:40:10.712Z,100.00
2023-10-05T07:42:38.758Z,100.00
2023-10-05T07:45:08.296Z,100.00
2023-10-05T07:47:42.159Z,100.00
2023-10-05T07:50:11.575Z,100.00
2023-10-05T07:52:42.131Z,100.00
2023-10-05T07:55:09.532Z,99.83
2023-10-05T07:57:36.278Z,99.02
2023-10-05T08:00:04.152Z,99.05
2023-10-05T08:02:30.867Z,99.56
2023-10-05T08:04:57.471Z,98.73
2023-10-05T08:07:24.859Z,99.26
2023-10-05T08:09:51.317Z,97.98
2023-10-05T08:12:18.056Z,97.53
2023-10-05T08:14:45.681Z,97.14
2023-10-05T08:17:13.519Z,97.83
2023-10-05T08:19:40.180Z,96.59
2023-10-05T08:22:07.415Z,96.46
2023-10-05T08:24:35.358Z,95.20
2023-10-05T08:27:02.039Z,95.62
2023-10-05T08:29:29.372Z,96.14
2023-10-05T08:31:55.853Z,96.28
2023-10-05T08:34:22.441Z,95.90
2023-10-05T08:36:56.025Z,95.30
2023-10-05T08:39:31.280Z,94.98
2023-10-05T08:42:07.309Z,95.07
2023-10-05T08:44:39.877Z,94.74
2023-10-05T08:47:09.646Z,94.55
2023-10-05T08:49:36.177Z,92.37
2023-10-05T08:52:14.879Z,92.76
2023-10-05T08:54:44.206Z,92.53
2023-10-05T08:57:11.533Z,92.09
2023-10-05T08:59:46.423Z,91.24
2023-10-05T09:02:19.552Z,89.72
2023-10-05T09:04:58.260Z,89.52
2023-10-05T09:07:38.960Z,88.22
2023-10-05T09:10:09.094Z,87.67
2023-10-05T09:12:36.346Z,87.76
2023-10-05T09:15:11.346Z,87.04
2023-10-05T09:17:38.369Z,86.43
2023-10-05T09:20:22.930Z,86.43
2023-10-05T09:22:50.902Z,84.95
2023-10-05T09:25:18.526Z,84.73
2023-10-05T09:27:51.571Z,84.21
2023-10-05T09:30:22.678Z,83.82
2023-10-05T09:32:50.158Z,83.26
2023-10-05T09:35:34.479Z,83.76
2023-10-05T09:38:01.666Z,82.41
2023-10-05T09:40:30.168Z,82.92
2023-10-05T09:42:57.268Z,82.55
2023-10-05T09:45:26.360Z,82.08
2023-10-05T09:47:54.595Z,81.70
2023-10-05T09:50:23.275Z,81.85
2023-10-05T09:52:50.769Z,81.11
2023-10-05T09:55:20.568Z,81.63
2023-10-05T09:57:48.093Z,82.22
2023-10-05T10:00:27.841Z,80.97
2023-10-05T10:02:59.910Z,82.34
2023-10-05T10:05:37.744Z,81.65
2023-10-05T10:08:13.645Z,81.08
2023-10-05T10:10:52.719Z,80.86
2023-10-05T10:13:23.862Z,81.48
2023-10-05T10:15:54.750Z,81.32
2023-10-05T10:18:32.453Z,82.22
2023-10-05T10:20:59.467Z,82.55
2023-10-05T10:23:36.663Z,81.69
2023-10-05T10:26:08.168Z,82.64
2023-10-05T10:29:03.345Z,81.75
2023-10-05T10:31:43.397Z,82.12
2023-10-05T10:34:24.773Z,81.07
2023-10-05T10:36:53.462Z,80.84
2023-10-05T10:39:24.549Z,81.94
2023-10-05T10:42:01.879Z,81.51
2023-10-05T10:44:28.335Z,81.51
2023-10-05T10:47:12.105Z,81.32
2023-10-05T10:49:41.141Z,81.32
2023-10-05T10:52:13.945Z,81.35
2023-10-05T10:54:46.793Z,82.20
2023-10-05T10:57:21.324Z,82.54
2023-10-05T10:59:48.113Z,82.42
2023-10-05T11:02:20.565Z,82.42
2023-10-05T11:05:00.621Z,82.61
2023-10-05T11:07:29.507Z,83.74
2023-10-05T11:09:56.053Z,83.47
2023-10-05T11:12:22.624Z,83.05
2023-10-05T11:14:53.044Z,82.84
2023-10-05T11:17:27.510Z,82.17
2023-10-05T11:19:54.038Z,82.52
2023-10-05T11:22:24.580Z,82.18
2023-10-05T11:25:08.448Z,82.24
2023-10-05T11:27:37.646Z,82.40
2023-10-05T11:30:15.265Z,82.96
2023-10-05T11:33:37.916Z,82.01
2023-10-05T11:35:52.972Z,82.38
2023-10-05T11:38:27.508Z,82.23
2023-10-05T11:40:57.499Z,82.93
2023-10-05T11:43:24.357Z,82.78
2023-10-05T11:46:40.035Z,80.98
2023-10-05T11:49:11.366Z,80.00
2023-10-05T11:51:45.555Z,80.61
2023-10-05T11:54:13.650Z,80.46
2023-10-05T11:56:41.595Z,80.69
2023-10-05T11:59:10.264Z,80.74
2023-10-05T12:01:41.417Z,80.69
2023-10-05T12:04:10.076Z,80.77
2023-10-05T12:06:40.644Z,81.09
2023-10-05T12:09:25.492Z,81.35
2023-10-05T12:11:55.380Z,81.12
2023-10-05T12:14:22.062Z,80.59
2023-10-05T12:16:48.660Z,80.88
2023-10-05T12:19:15.624Z,79.77
2023-10-05T12:21:43.239Z,79.60
2023-10-05T12:24:12.108Z,79.28
2023-10-05T12:26:40.432Z,79.67
2023-10-05T12:29:13.383Z,80.24
2023-10-05T12:31:45.644Z,80.70
2023-10-05T12:36:50.413Z,79.84
2023-10-05T12:39:18.465Z,79.79
2023-10-05T12:41:45.715Z,79.20
2023-10-05T12:44:14.240Z,79.49
2023-10-05T12:46:46.947Z,79.18
2023-10-05T12:49:17.582Z,79.78
2023-10-05T12:51:46.393Z,79.95
2023-10-05T12:54:19.371Z,79.27
2023-10-05T12:56:55.446Z,79.40
2023-10-05T12:59:26.450Z,79.35
2023-10-05T13:01:58.634Z,80.03
2023-10-05T13:04:25.150Z,79.63
2023-10-05T13:06:51.590Z,79.62
2023-10-05T13:09:20.266Z,79.89
2023-10-05T13:11:48.316Z,79.24
2023-10-05T13:14:20.120Z,79.39
2023-10-05T13:16:52.142Z,79.06
2023-10-05T13:19:19.705Z,78.83
2023-10-05T13:21:46.531Z,79.02
2023-10-05T13:24:13.524Z,78.33
2023-10-05T13:26:45.342Z,79.16
2023-10-05T13:29:18.835Z,78.29
2023-10-05T13:31:45.953Z,77.30
2023-10-05T13:34:20.637Z,75.36
2023-10-05T13:36:56.501Z,76.30
2023-10-05T13:39:23.100Z,76.47
2023-10-05T13:42:01.617Z,76.17
2023-10-05T13:44:28.835Z,75.95
2023-10-05T13:46:56.702Z,75.56
2023-10-05T13:49:27.400Z,74.97
2023-10-05T13:51:54.020Z,75.30
2023-10-05T13:54:22.465Z,75.25
2023-10-05T13:56:50.194Z,74.81
2023-10-05T13:59:22.411Z,73.93
2023-10-05T14:01:52.338Z,74.29
2023-10-05T14:04:20.616Z,74.34
2023-10-05T14:06:47.469Z,73.98
2023-10-05T14:09:14.443Z,74.33
2023-10-05T14:11:42.171Z,74.99
2023-10-05T14:14:10.601Z,74.44
2023-10-05T14:16:51.390Z,75.07
2023-10-05T14:19:19.233Z,75.60
2023-10-05T14:21:46.104Z,75.97
2023-10-05T14:24:13.408Z,75.40
2023-10-05T14:26:45.719Z,75.24
2023-10-05T14:29:13.615Z,75.31
2023-10-05T14:31:40.170Z,74.03
2023-10-05T14:34:10.068Z,74.50
2023-10-05T14:36:37.026Z,74.48
2023-10-05T14:39:21.741Z,74.38
2023-10-05T14:41:49.816Z,73.80
2023-10-05T14:44:16.244Z,72.69
2023-10-05T14:46:43.235Z,72.42
2023-10-05T14:49:09.938Z,71.72
2023-10-05T14:51:36.431Z,71.94
2023-10-05T14:54:02.848Z,72.94
2023-10-05T14:56:29.261Z,73.24
2023-10-05T14:58:55.640Z,73.81
2023-10-05T15:01:22.152Z,73.84
2023-10-05T15:03:48.670Z,73.48
2023-10-05T15:06:16.010Z,73.11
2023-10-05T15:08:42.533Z,74.11
2023-10-05T15:11:10.178Z,73.73
2023-10-05T15:13:37.229Z,74.17
2023-10-05T15:16:06.777Z,74.23
2023-10-05T15:18:35.872Z,73.96
2023-10-05T15:21:03.546Z,72.94
2023-10-05T15:23:29.972Z,72.64
2023-10-05T15:25:58.012Z,73.63
2023-10-05T15:28:24.623Z,74.00
2023-10-05T15:30:51.099Z,72.35
2023-10-05T15:33:18.160Z,73.09
2023-10-05T15:35:44.653Z,73.49
2023-10-05T15:38:11.092Z,73.39
2023-10-05T15:40:38.597Z,73.59
2023-10-05T15:43:08.844Z,73.83
2023-10-05T15:45:35.924Z,73.98
2023-10-05T15:48:10.236Z,74.32
2023-10-05T15:50:40.411Z,74.46
2023-10-05T15:53:08.640Z,74.66
2023-10-05T15:55:35.981Z,74.46
2023-10-05T15:58:07.829Z,74.46
2023-10-05T16:00:35.700Z,74.78
2023-10-05T16:03:03.940Z,75.24
2023-10-05T16:05:34.941Z,75.46
2023-10-05T16:08:02.332Z,75.95
2023-10-05T16:10:30.371Z,76.36
2023-10-05T16:12:57.422Z,77.28
2023-10-05T16:15:27.281Z,76.55
2023-10-05T16:17:54.889Z,76.53
2023-10-05T16:20:27.347Z,76.56
2023-10-05T16:22:59.431Z,77.43
2023-10-05T16:25:28.053Z,78.25
2023-10-05T16:27:55.892Z,77.25
2023-10-05T16:30:23.291Z,78.13
2023-10-05T16:32:51.988Z,78.72
2023-10-05T16:35:19.397Z,79.18
2023-10-05T16:37:46.430Z,80.36
2023-10-05T16:40:14.497Z,81.07
2023-10-05T16:42:43.084Z,81.89
2023-10-05T16:45:13.659Z,82.56
2023-10-05T16:47:44.723Z,84.80
2023-10-05T16:50:15.000Z,85.96
2023-10-05T16:52:44.313Z,87.37
2023-10-05T16:55:12.545Z,87.45
2023-10-05T16:57:41.816Z,88.88
2023-10-05T17:00:17.426Z,89.16
2023-10-05T17:02:48.058Z,89.32
2023-10-05T17:05:18.201Z,90.05
2023-10-05T17:07:46.861Z,90.75
2023-10-05T17:10:14.738Z,91.20
2023-10-05T17:12:41.996Z,91.70
2023-10-05T17:15:09.736Z,92.31
2023-10-05T17:17:37.310Z,92.74
2023-10-05T17:20:05.110Z,93.20
2023-10-05T17:22:31.818Z,93.55
2023-10-05T17:24:58.691Z,93.82
2023-10-05T17:27:28.589Z,94.25
2023-10-05T17:29:58.168Z,94.30
2023-10-05T17:32:31.162Z,95.02
2023-10-05T17:34:58.038Z,95.54
2023-10-05T17:37:28.977Z,95.51
2023-10-05T17:39:56.942Z,95.65
2023-10-05T17:42:23.696Z,95.71
2023-10-05T17:44:50.672Z,95.79
2023-10-05T17:47:17.089Z,95.38
2023-10-05T17:49:44.947Z,95.23
2023-10-05T17:52:11.390Z,96.16
2023-10-05T17:54:38.364Z,96.25
2023-10-05T17:57:10.855Z,96.38
2023-10-05T17:59:38.753Z,96.94
2023-10-05T18:02:08.205Z,97.14
2023-10-05T18:04:38.019Z,96.47
2023-10-05T18:07:08.108Z,97.91
2023-10-05T18:09:37.921Z,97.16
2023-10-05T18:12:09.533Z,97.08
2023-10-05T18:14:36.378Z,97.11
2023-10-05T18:17:05.871Z,96.40
2023-10-05T18:19:32.358Z,97.25
2023-10-05T18:21:58.916Z,97.71
2023-10-05T18:24:25.464Z,97.94
2023-10-05T18:26:52.365Z,97.91
2023-10-05T18:29:19.116Z,97.79
2023-10-05T18:31:45.869Z,97.38
2023-10-05T18:34:13.276Z,97.30
2023-10-05T18:36:39.946Z,97.98
2023-10-05T18:39:13.154Z,97.37
2023-10-05T18:41:39.669Z,97.67
2023-10-05T18:44:06.172Z,97.89
2023-10-05T18:46:32.604Z,97.78
2023-10-05T18:48:59.001Z,97.78
2023-10-05T18:51:25.469Z,98.00
2023-10-05T18:53:52.098Z,97.48
2023-10-05T18:56:18.501Z,98.53
2023-10-05T18:58:44.884Z,98.03
2023-10-05T19:01:11.308Z,98.17
2023-10-05T19:03:39.761Z,98.33
2023-10-05T19:06:08.348Z,99.10
2023-10-05T19:08:34.876Z,99.29
2023-10-05T19:11:03.244Z,98.84
2023-10-05T19:13:29.744Z,98.93
2023-10-05T19:15:56.261Z,99.16
2023-10-05T19:18:22.680Z,99.07
2023-10-05T19:20:49.105Z,100.00
2023-10-05T19:23:15.565Z,98.55
2023-10-05T19:25:43.167Z,99.27
2023-10-05T19:28:09.717Z,98.88
2023-10-05T19:30:37.773Z,98.95
2023-10-05T19:33:04.928Z,98.85
2023-10-05T19:35:32.158Z,98.27
2023-10-05T19:38:00.810Z,98.33
2023-10-05T19:40:27.910Z,99.01
2023-10-05T19:42:56.005Z,99.31
2023-10-05T19:45:23.043Z,99.35
2023-10-05T19:47:49.525Z,98.89
2023-10-05T19:50:16.048Z,98.36
2023-10-05T19:52:42.474Z,98.74
2023-10-05T19:55:11.991Z,99.13
2023-10-05T19:57:38.760Z,99.88
2023-10-05T20:00:12.300Z,100.00
2023-10-05T20:02:42.884Z,100.00
2023-10-05T20:05:09.920Z,99.42
2023-10-05T20:07:36.498Z,99.26
2023-10-05T20:10:05.851Z,99.37
2023-10-05T20:12:32.390Z,99.28
2023-10-05T20:14:58.805Z,99.53
2023-10-05T20:17:25.327Z,98.51
2023-10-05T20:19:52.645Z,100.00
2023-10-05T20:22:19.104Z,100.00
2023-10-05T20:24:45.484Z,99.74
2023-10-05T20:27:17.073Z,100.00
2023-10-05T20:29:44.129Z,100.00
2023-10-05T20:32:11.679Z,100.00
2023-10-05T20:34:38.174Z,100.00
2023-10-05T20:37:04.703Z,99.86
2023-10-05T20:39:31.138Z,100.00
2023-10-05T20:41:57.585Z,100.00
2023-10-05T20:44:28.054Z,100.00
2023-10-05T20:47:01.184Z,100.00
2023-10-05T20:49:34.695Z,100.00
2023-10-05T20:52:01.436Z,100.00
2023-10-05T20:54:27.822Z,100.00
2023-10-05T20:56:54.391Z,100.00
2023-10-05T20:59:21.098Z,100.00
2023-10-05T21:01:47.480Z,100.00
2023-10-05T21:04:13.955Z,100.00
2023-10-05T21:06:40.389Z,100.00
2023-10-05T21:09:06.950Z,100.00
2023-10-05T21:11:34.466Z,100.00
2023-10-05T21:14:01.685Z,100.00
2023-10-05T21:16:28.682Z,100.00
2023-10-05T21:18:56.184Z,100.00
2023-10-05T21:21:22.957Z,100.00
2023-10-05T21:23:49.484Z,100.00
2023-10-05T21:26:16.839Z,100.00
2023-10-05T21:28:43.331Z,100.00
2023-10-05T21:31:09.869Z,100.00
2023-10-05T21:33:36.430Z,100.00
2023-10-05T21:36:02.996Z,100.00
2023-10-05T21:38:29.444Z,100.00
2023-10-05T21:40:55.942Z,100.00
2023-10-05T21:43:22.389Z,100.00
2023-10-05T21:45:48.792Z,100.00
2023-10-05T21:48:15.201Z,100.00
2023-10-05T21:50:42.383Z,100.00
2023-10-05T21:53:08.833Z,100.00
2023-10-05T21:55:35.511Z,100.00
2023-10-05T21:58:01.965Z,100.00
2023-10-05T22:00:45.653Z,100.00
2023-10-05T22:03:12.102Z,100.00
2023-10-05T22:05:39.468Z,100.00
2023-10-05T22:08:08.070Z,100.00
2023-10-05T22:10:39.119Z,100.00
2023-10-05T22:13:06.642Z,100.00
2023-10-05T22:15:33.209Z,100.00
2023-10-05T22:18:00.735Z,100.00
2023-10-05T22:20:29.567Z,100.00
2023-10-05T22:22:56.542Z,100.00
2023-10-05T22:25:23.997Z,100.00
2023-10-05T22:27:51.416Z,100.00
2023-10-05T22:30:19.306Z,100.00
2023-10-05T22:32:47.345Z,100.00
2023-10-05T22:35:14.228Z,100.00
2023-10-05T22:37:40.672Z,100.00
2023-10-05T22:40:07.676Z,100.00
2023-10-05T22:42:35.513Z,100.00
2023-10-05T22:45:01.967Z,100.00
2023-10-05T22:47:28.982Z,100.00
2023-10-05T22:49:55.752Z,100.00
2023-10-05T22:52:22.213Z,100.00
2023-10-05T22:54:48.651Z,100.00
2023-10-05T22:57:15.130Z,100.00
2023-10-05T22:59:41.537Z,100.00
2023-10-05T23:02:11.215Z,100.00
2023-10-05T23:04:37.780Z,100.00
2023-10-05T23:07:09.128Z,100.00
2023-10-05T23:09:36.574Z,100.00
2023-10-05T23:12:10.267Z,99.77
2023-10-05T23:14:37.447Z,99.85
2023-10-05T23:17:10.223Z,100.00
2023-10-05T23:19:37.804Z,99.81
2023-10-05T23:22:06.013Z,99.47
2023-10-05T23:24:35.391Z,99.16
2023-10-05T23:27:03.417Z,99.34
2023-10-05T23:29:32.833Z,98.64
2023-10-05T23:32:00.235Z,99.27
2023-10-05T23:34:29.358Z,99.93
2023-10-05T23:36:59.839Z,99.92
2023-10-05T23:39:26.289Z,100.00
2023-10-05T23:41:53.860Z,100.00
2023-10-05T23:44:23.216Z,100.00
2023-10-05T23:47:03.844Z,99.66
2023-10-05T23:49:42.462Z,99.10
2023-10-05T23:52:09.754Z,99.17
2023-10-05T23:54:36.191Z,99.51
2023-10-05T23:57:17.744Z,100.00
2023-10-05T23:59:48.296Z,100.00
